Time,TemperatureF,DewpointF,PressureIn,WindDirection,WindDirectionDegrees,WindSpeedMPH,WindSpeedGustMPH,Humidity,HourlyPrecipIn,Conditions,Clouds,dailyrainin,SoftwareType,DateUTC
2013-09-17 00:04:00,58.0,38.9,24.79,WSW,258,5.0,-999.0,49,-99.99,,,-99.99,dwt +perl,2013-09-17 07:04:00,
2013-09-17 00:09:00,57.7,35.4,24.80,West,276,7.0,-999.0,43,-99.99,,,-99.99,dwt +perl,2013-09-17 07:09:00,
2013-09-17 00:14:00,56.9,35.2,24.79,West,274,5.0,-999.0,44,-99.99,,,-99.99,dwt +perl,2013-09-17 07:14:00,
2013-09-17 00:19:00,56.8,35.1,24.79,West,274,7.0,-999.0,44,-99.99,,,-99.99,dwt +perl,2013-09-17 07:19:00,
2013-09-17 00:23:00,56.8,34.5,24.79,West,276,6.0,-999.0,43,-99.99,,,-99.99,dwt +perl,2013-09-17 07:23:00,
2013-09-17 00:29:00,56.9,33.4,24.79,West,276,10.0,-999.0,41,-99.99,,,-99.99,dwt +perl,2013-09-17 07:29:00,
2013-09-17 00:34:00,56.3,29.0,24.79,WSW,257,9.0,-999.0,35,-99.99,,,-99.99,dwt +perl,2013-09-17 07:34:00,
2013-09-17 00:39:00,55.5,25.4,24.79,West,279,13.0,-999.0,31,-99.99,,,-99.99,dwt +perl,2013-09-17 07:39:00,
2013-09-17 00:43:00,54.6,24.6,24.80,West,262,10.0,-999.0,31,-99.99,,,-99.99,dwt +perl,2013-09-17 07:43:00,
2013-09-17 00:49:00,53.7,26.0,24.80,WNW,283,10.0,-999.0,34,-99.99,,,-99.99,dwt +perl,2013-09-17 07:49:00,
2013-09-17 00:54:00,52.9,29.2,24.79,West,272,13.0,-999.0,40,-99.99,,,-99.99,dwt +perl,2013-09-17 07:54:00,
2013-09-17 00:59:00,52.8,28.5,24.79,West,272,9.0,-999.0,39,-99.99,,,-99.99,dwt +perl,2013-09-17 07:59:00,
2013-09-17 01:04:00,53.3,29.6,24.80,West,274,10.0,-999.0,40,-99.99,,,-99.99,dwt +perl,2013-09-17 08:04:00,
2013-09-17 01:09:00,53.5,27.9,24.80,WSW,253,11.0,-999.0,37,-99.99,,,-99.99,dwt +perl,2013-09-17 08:09:00,
2013-09-17 01:14:00,53.5,28.5,24.79,West,280,14.0,-999.0,38,-99.99,,,-99.99,dwt +perl,2013-09-17 08:14:00,
2013-09-17 01:19:00,53.4,29.1,24.80,West,278,12.0,-999.0,39,-99.99,,,-99.99,dwt +perl,2013-09-17 08:19:00,
2013-09-17 01:23:00,53.2,29.5,24.79,West,259,10.0,-999.0,40,-99.99,,,-99.99,dwt +perl,2013-09-17 08:23:00,
2013-09-17 01:29:00,52.6,30.7,24.80,West,278,14.0,-999.0,43,-99.99,,,-99.99,dwt +perl,2013-09-17 08:29:00,
2013-09-17 01:34:00,53.1,28.2,24.80,West,264,12.0,-999.0,38,-99.99,,,-99.99,dwt +perl,2013-09-17 08:34:00,
2013-09-17 01:39:00,53.3,29.0,24.80,WSW,255,14.0,-999.0,39,-99.99,,,-99.99,dwt +perl,2013-09-17 08:39:00,
2013-09-17 01:44:00,53.5,27.9,24.80,WNW,283,14.0,-999.0,37,-99.99,,,-99.99,dwt +perl,2013-09-17 08:44:00,
2013-09-17 01:48:00,53.4,29.1,24.80,West,270,12.0,-999.0,39,-99.99,,,-99.99,dwt +perl,2013-09-17 08:48:00,
2013-09-17 01:54:00,53.1,28.8,24.80,West,260,11.0,-999.0,39,-99.99,,,-99.99,dwt +perl,2013-09-17 08:54:00,
2013-09-17 01:59:00,53.2,30.1,24.80,West,272,10.0,-999.0,41,-99.99,,,-99.99,dwt +perl,2013-09-17 08:59:00,
2013-09-17 02:04:00,53.1,31.2,24.80,West,275,13.0,-999.0,43,-99.99,,,-99.99,dwt +perl,2013-09-17 09:04:00,
2013-09-17 02:09:00,52.8,31.5,24.79,West,268,13.0,-999.0,44,-99.99,,,-99.99,dwt +perl,2013-09-17 09:09:00,
2013-09-17 02:14:00,53.2,30.7,24.79,WNW,282,12.0,-999.0,42,-99.99,,,-99.99,dwt +perl,2013-09-17 09:14:00,
2013-09-17 02:19:00,53.3,30.2,24.80,West,280,12.0,-999.0,41,-99.99,,,-99.99,dwt +perl,2013-09-17 09:19:00,
2013-09-17 02:24:00,52.7,32.0,24.79,West,269,12.0,-999.0,45,-99.99,,,-99.99,dwt +perl,2013-09-17 09:24:00,
2013-09-17 02:29:00,52.1,33.0,24.79,West,273,12.0,-999.0,48,-99.99,,,-99.99,dwt +perl,2013-09-17 09:29:00,
2013-09-17 02:34:00,52.1,31.4,24.79,West,281,15.0,-999.0,45,-99.99,,,-99.99,dwt +perl,2013-09-17 09:34:00,
2013-09-17 02:39:00,52.1,33.0,24.79,WNW,291,11.0,-999.0,48,-99.99,,,-99.99,dwt +perl,2013-09-17 09:39:00,
2013-09-17 02:44:00,52.0,32.9,24.79,West,280,10.0,-999.0,48,-99.99,,,-99.99,dwt +perl,2013-09-17 09:44:00,
2013-09-17 02:48:00,52.0,32.9,24.79,WNW,283,13.0,-999.0,48,-99.99,,,-99.99,dwt +perl,2013-09-17 09:48:00,
2013-09-17 02:53:00,51.7,33.7,24.79,WSW,247,8.0,-999.0,50,-99.99,,,-99.99,dwt +perl,2013-09-17 09:53:00,
2013-09-17 02:59:00,51.0,34.0,24.78,West,274,13.0,-999.0,52,-99.99,,,-99.99,dwt +perl,2013-09-17 09:59:00,
2013-09-17 03:04:00,50.4,34.8,24.78,WSW,256,10.0,-999.0,55,-99.99,,,-99.99,dwt +perl,2013-09-17 10:04:00,
2013-09-17 03:09:00,49.9,35.3,24.78,West,262,16.0,-999.0,57,-99.99,,,-99.99,dwt +perl,2013-09-17 10:09:00,
2013-09-17 03:14:00,49.8,35.6,24.78,West,264,13.0,-999.0,58,-99.99,,,-99.99,dwt +perl,2013-09-17 10:14:00,
2013-09-17 03:19:00,49.8,36.0,24.78,West,272,13.0,-999.0,59,-99.99,,,-99.99,dwt +perl,2013-09-17 10:19:00,
2013-09-17 03:24:00,49.3,36.4,24.78,SW,236,11.0,-999.0,61,-99.99,,,-99.99,dwt +perl,2013-09-17 10:24:00,
2013-09-17 03:29:00,48.5,36.9,24.78,West,276,14.0,-999.0,64,-99.99,,,-99.99,dwt +perl,2013-09-17 10:29:00,
2013-09-17 03:33:00,48.1,37.7,24.78,West,267,15.0,-999.0,67,-99.99,,,-99.99,dwt +perl,2013-09-17 10:33:00,
2013-09-17 03:39:00,47.7,38.0,24.78,WSW,256,9.0,-999.0,69,-99.99,,,-99.99,dwt +perl,2013-09-17 10:39:00,
2013-09-17 03:44:00,47.6,38.3,24.78,WNW,284,20.0,-999.0,70,-99.99,,,-99.99,dwt +perl,2013-09-17 10:44:00,
2013-09-17 03:49:00,47.4,38.5,24.78,WNW,288,14.0,-999.0,71,-99.99,,,-99.99,dwt +perl,2013-09-17 10:49:00,
2013-09-17 03:54:00,47.4,38.5,24.78,WSW,238,15.0,-999.0,71,-99.99,,,-99.99,dwt +perl,2013-09-17 10:54:00,
2013-09-17 03:59:00,47.2,38.3,24.78,West,272,16.0,-999.0,71,-99.99,,,-99.99,dwt +perl,2013-09-17 10:59:00,
2013-09-17 04:04:00,46.4,38.6,24.78,WSW,258,13.0,-999.0,74,-99.99,,,-99.99,dwt +perl,2013-09-17 11:04:00,
2013-09-17 04:08:00,46.2,38.7,24.78,West,270,17.0,-999.0,75,-99.99,,,-99.99,dwt +perl,2013-09-17 11:08:00,
2013-09-17 04:14:00,45.4,38.6,24.78,West,279,12.0,-999.0,77,-99.99,,,-99.99,dwt +perl,2013-09-17 11:14:00,
2013-09-17 04:19:00,45.6,39.1,24.78,WSW,250,12.0,-999.0,78,-99.99,,,-99.99,dwt +perl,2013-09-17 11:19:00,
2013-09-17 04:23:00,45.0,38.9,24.78,SW,233,17.0,-999.0,79,-99.99,,,-99.99,dwt +perl,2013-09-17 11:23:00,
2013-09-17 04:29:00,44.7,39.5,24.78,West,271,12.0,-999.0,82,-99.99,,,-99.99,dwt +perl,2013-09-17 11:29:00,
2013-09-17 04:34:00,45.1,39.9,24.78,West,270,14.0,-999.0,82,-99.99,,,-99.99,dwt +perl,2013-09-17 11:34:00,
2013-09-17 04:39:00,45.2,39.7,24.78,WSW,252,14.0,-999.0,81,-99.99,,,-99.99,dwt +perl,2013-09-17 11:39:00,
2013-09-17 04:44:00,45.4,39.9,24.78,West,278,14.0,-999.0,81,-99.99,,,-99.99,dwt +perl,2013-09-17 11:44:00,
2013-09-17 04:49:00,45.7,40.2,24.78,West,272,19.0,-999.0,81,-99.99,,,-99.99,dwt +perl,2013-09-17 11:49:00,
2013-09-17 04:53:00,46.1,40.0,24.78,WSW,253,18.0,-999.0,79,-99.99,,,-99.99,dwt +perl,2013-09-17 11:53:00,
2013-09-17 04:59:00,46.3,40.2,24.78,West,270,17.0,-999.0,79,-99.99,,,-99.99,dwt +perl,2013-09-17 11:59:00,
2013-09-17 05:03:00,46.3,39.8,24.78,WNW,282,20.0,-999.0,78,-99.99,,,-99.99,dwt +perl,2013-09-17 12:03:00,
2013-09-17 05:08:00,45.8,40.0,24.78,West,271,19.0,-999.0,80,-99.99,,,-99.99,dwt +perl,2013-09-17 12:08:00,
2013-09-17 05:14:00,45.5,40.0,24.78,West,281,19.0,-999.0,81,-99.99,,,-99.99,dwt +perl,2013-09-17 12:14:00,
2013-09-17 05:19:00,44.6,40.1,24.78,WSW,249,13.0,-999.0,84,-99.99,,,-99.99,dwt +perl,2013-09-17 12:19:00,
2013-09-17 05:23:00,45.4,39.9,24.78,West,266,12.0,-999.0,81,-99.99,,,-99.99,dwt +perl,2013-09-17 12:23:00,
2013-09-17 05:29:00,46.1,40.0,24.78,West,265,13.0,-999.0,79,-99.99,,,-99.99,dwt +perl,2013-09-17 12:29:00,
2013-09-17 05:33:00,46.3,39.8,24.78,NW,308,21.0,-999.0,78,-99.99,,,-99.99,dwt +perl,2013-09-17 12:33:00,
2013-09-17 05:38:00,46.2,39.7,24.78,West,278,20.0,-999.0,78,-99.99,,,-99.99,dwt +perl,2013-09-17 12:38:00,
2013-09-17 05:44:00,46.4,39.6,24.78,West,273,18.0,-999.0,77,-99.99,,,-99.99,dwt +perl,2013-09-17 12:44:00,
2013-09-17 05:48:00,46.2,39.7,24.78,WNW,297,18.0,-999.0,78,-99.99,,,-99.99,dwt +perl,2013-09-17 12:48:00,
2013-09-17 05:53:00,46.5,39.7,24.78,West,275,20.0,-999.0,77,-99.99,,,-99.99,dwt +perl,2013-09-17 12:53:00,
2013-09-17 05:59:00,46.7,39.5,24.78,WNW,287,17.0,-999.0,76,-99.99,,,-99.99,dwt +perl,2013-09-17 12:59:00,
2013-09-17 06:03:00,46.8,39.6,24.78,WNW,292,16.0,-999.0,76,-99.99,,,-99.99,dwt +perl,2013-09-17 13:03:00,
2013-09-17 06:08:00,46.9,39.4,24.78,West,270,22.0,-999.0,75,-99.99,,,-99.99,dwt +perl,2013-09-17 13:08:00,
2013-09-17 06:13:00,47.0,39.5,24.79,West,277,22.0,-999.0,75,-99.99,,,-99.99,dwt +perl,2013-09-17 13:13:00,
2013-09-17 06:19:00,46.9,39.7,24.79,West,276,21.0,-999.0,76,-99.99,,,-99.99,dwt +perl,2013-09-17 13:19:00,
2013-09-17 06:23:00,47.2,39.3,24.79,West,270,18.0,-999.0,74,-99.99,,,-99.99,dwt +perl,2013-09-17 13:23:00,
2013-09-17 06:28:00,47.1,39.2,24.79,West,260,16.0,-999.0,74,-99.99,,,-99.99,dwt +perl,2013-09-17 13:28:00,
2013-09-17 06:33:00,46.7,39.5,24.79,West,276,19.0,-999.0,76,-99.99,,,-99.99,dwt +perl,2013-09-17 13:33:00,
2013-09-17 06:38:00,46.3,40.2,24.79,West,260,14.0,-999.0,79,-99.99,,,-99.99,dwt +perl,2013-09-17 13:38:00,
2013-09-17 06:43:00,45.9,39.8,24.79,West,276,16.0,-999.0,79,-99.99,,,-99.99,dwt +perl,2013-09-17 13:43:00,
2013-09-17 06:48:00,45.2,40.3,24.79,WSW,247,11.0,-999.0,83,-99.99,,,-99.99,dwt +perl,2013-09-17 13:48:00,
2013-09-17 06:53:00,44.5,40.6,24.80,West,265,17.0,-999.0,86,-99.99,,,-99.99,dwt +perl,2013-09-17 13:53:00,
2013-09-17 06:58:00,43.9,40.6,24.80,West,278,15.0,-999.0,88,-99.99,,,-99.99,dwt +perl,2013-09-17 13:58:00,
2013-09-17 07:03:00,43.9,40.9,24.80,West,274,18.0,-999.0,89,-99.99,,,-99.99,dwt +perl,2013-09-17 14:03:00,
2013-09-17 07:08:00,44.1,41.1,24.80,West,272,14.0,-999.0,89,-99.99,,,-99.99,dwt +perl,2013-09-17 14:08:00,
2013-09-17 07:13:00,44.2,41.2,24.80,WNW,285,12.0,-999.0,89,-99.99,,,-99.99,dwt +perl,2013-09-17 14:13:00,
2013-09-17 07:18:00,44.6,41.0,24.80,West,281,21.0,-999.0,87,-99.99,,,-99.99,dwt +perl,2013-09-17 14:18:00,
2013-09-17 07:23:00,44.4,41.1,24.81,WSW,255,11.0,-999.0,88,-99.99,,,-99.99,dwt +perl,2013-09-17 14:23:00,
2013-09-17 07:28:00,44.5,41.2,24.80,NW,310,18.0,-999.0,88,-99.99,,,-99.99,dwt +perl,2013-09-17 14:28:00,
2013-09-17 07:33:00,45.4,40.8,24.81,WNW,299,21.0,-999.0,84,-99.99,,,-99.99,dwt +perl,2013-09-17 14:33:00,
2013-09-17 07:38:00,46.0,40.5,24.81,West,278,23.0,-999.0,81,-99.99,,,-99.99,dwt +perl,2013-09-17 14:38:00,
2013-09-17 07:43:00,46.0,40.8,24.81,West,260,17.0,-999.0,82,-99.99,,,-99.99,dwt +perl,2013-09-17 14:43:00,
2013-09-17 07:48:00,46.1,40.6,24.81,West,276,21.0,-999.0,81,-99.99,,,-99.99,dwt +perl,2013-09-17 14:48:00,
2013-09-17 07:53:00,45.7,40.8,24.81,West,278,12.0,-999.0,83,-99.99,,,-99.99,dwt +perl,2013-09-17 14:53:00,
2013-09-17 07:58:00,45.4,40.8,24.81,West,280,17.0,-999.0,84,-99.99,,,-99.99,dwt +perl,2013-09-17 14:58:00,
2013-09-17 08:03:00,46.0,40.8,24.81,West,280,14.0,-999.0,82,-99.99,,,-99.99,dwt +perl,2013-09-17 15:03:00,
2013-09-17 08:08:00,46.1,40.9,24.81,WSW,256,21.0,-999.0,82,-99.99,,,-99.99,dwt +perl,2013-09-17 15:08:00,
2013-09-17 08:13:00,46.3,40.5,24.81,West,276,22.0,-999.0,80,-99.99,,,-99.99,dwt +perl,2013-09-17 15:13:00,
2013-09-17 08:18:00,46.7,40.2,24.81,NW,319,24.0,-999.0,78,-99.99,,,-99.99,dwt +perl,2013-09-17 15:18:00,
2013-09-17 08:23:00,47.0,40.2,24.81,WNW,291,21.0,-999.0,77,-99.99,,,-99.99,dwt +perl,2013-09-17 15:23:00,
2013-09-17 08:28:00,47.3,39.8,24.81,West,278,16.0,-999.0,75,-99.99,,,-99.99,dwt +perl,2013-09-17 15:28:00,
2013-09-17 08:33:00,47.1,40.6,24.82,WNW,284,26.0,-999.0,78,-99.99,,,-99.99,dwt +perl,2013-09-17 15:33:00,
2013-09-17 08:38:00,47.2,40.4,24.82,West,264,26.0,-999.0,77,-99.99,,,-99.99,dwt +perl,2013-09-17 15:38:00,
2013-09-17 08:43:00,47.2,41.0,24.82,West,261,13.0,-999.0,79,-99.99,,,-99.99,dwt +perl,2013-09-17 15:43:00,
2013-09-17 08:48:00,46.8,41.3,24.82,West,260,15.0,-999.0,81,-99.99,,,-99.99,dwt +perl,2013-09-17 15:48:00,
2013-09-17 08:53:00,46.7,41.2,24.82,West,275,15.0,-999.0,81,-99.99,,,-99.99,dwt +perl,2013-09-17 15:53:00,
2013-09-17 08:58:00,47.3,40.5,24.82,West,274,14.0,-999.0,77,-99.99,,,-99.99,dwt +perl,2013-09-17 15:58:00,
2013-09-17 09:03:00,47.7,40.5,24.82,West,259,19.0,-999.0,76,-99.99,,,-99.99,dwt +perl,2013-09-17 16:03:00,
2013-09-17 09:08:00,47.9,41.0,24.83,West,264,20.0,-999.0,77,-99.99,,,-99.99,dwt +perl,2013-09-17 16:08:00,
2013-09-17 09:13:00,47.8,40.6,24.83,West,279,21.0,-999.0,76,-99.99,,,-99.99,dwt +perl,2013-09-17 16:13:00,
2013-09-17 09:18:00,47.7,41.2,24.83,West,281,18.0,-999.0,78,-99.99,,,-99.99,dwt +perl,2013-09-17 16:18:00,
2013-09-17 09:23:00,47.7,40.8,24.83,SW,235,13.0,-999.0,77,-99.99,,,-99.99,dwt +perl,2013-09-17 16:23:00,
2013-09-17 09:28:00,47.6,41.7,24.83,WSW,254,13.0,-999.0,80,-99.99,,,-99.99,dwt +perl,2013-09-17 16:28:00,
2013-09-17 09:33:00,47.6,41.7,24.83,WSW,253,14.0,-999.0,80,-99.99,,,-99.99,dwt +perl,2013-09-17 16:33:00,
2013-09-17 09:38:00,47.8,41.6,24.83,WSW,239,16.0,-999.0,79,-99.99,,,-99.99,dwt +perl,2013-09-17 16:38:00,
2013-09-17 09:43:00,48.1,41.6,24.83,WSW,249,20.0,-999.0,78,-99.99,,,-99.99,dwt +perl,2013-09-17 16:43:00,
2013-09-17 09:48:00,48.6,40.7,24.83,West,274,18.0,-999.0,74,-99.99,,,-99.99,dwt +perl,2013-09-17 16:48:00,
2013-09-17 09:53:00,48.7,40.8,24.83,SW,230,14.0,-999.0,74,-99.99,,,-99.99,dwt +perl,2013-09-17 16:53:00,
2013-09-17 09:58:00,48.6,41.7,24.83,West,260,18.0,-999.0,77,-99.99,,,-99.99,dwt +perl,2013-09-17 16:58:00,
2013-09-17 10:03:00,48.3,41.1,24.83,WNW,291,18.0,-999.0,76,-99.99,,,-99.99,dwt +perl,2013-09-17 17:03:00,
2013-09-17 10:13:00,48.9,41.3,24.84,WSW,237,16.0,-999.0,75,-99.99,,,-99.99,dwt +perl,2013-09-17 17:13:00,
2013-09-17 10:18:00,49.1,41.5,24.84,WNW,282,16.0,-999.0,75,-99.99,,,-99.99,dwt +perl,2013-09-17 17:18:00,
2013-09-17 10:28:00,49.9,41.2,24.84,SW,221,20.0,-999.0,72,-99.99,,,-99.99,dwt +perl,2013-09-17 17:28:00,
2013-09-17 10:34:00,49.6,41.3,24.84,West,267,9.0,-999.0,73,-99.99,,,-99.99,dwt +perl,2013-09-17 17:34:00,
2013-09-17 10:38:00,50.0,41.3,24.84,SW,233,21.0,-999.0,72,-99.99,,,-99.99,dwt +perl,2013-09-17 17:38:00,
2013-09-17 10:43:00,50.2,41.2,24.84,WSW,252,17.0,-999.0,71,-99.99,,,-99.99,dwt +perl,2013-09-17 17:43:00,
2013-09-17 10:44:00,49.6,42.0,24.84,WSW,257,14.0,-999.0,75,-99.99,,,-99.99,dwt +perl,2013-09-17 17:44:00,
2013-09-17 10:48:00,50.4,41.3,24.84,WSW,245,15.0,-999.0,71,-99.99,,,-99.99,dwt +perl,2013-09-17 17:48:00,
2013-09-17 10:53:00,50.3,40.5,24.84,WSW,251,18.0,-999.0,69,-99.99,,,-99.99,dwt +perl,2013-09-17 17:53:00,
2013-09-17 11:03:00,50.7,40.9,24.85,WSW,243,16.0,-999.0,69,-99.99,,,-99.99,dwt +perl,2013-09-17 18:03:00,
2013-09-17 11:08:00,50.9,40.3,24.85,SW,235,13.0,-999.0,67,-99.99,,,-99.99,dwt +perl,2013-09-17 18:08:00,
2013-09-17 11:09:00,50.6,41.5,24.84,SW,230,24.0,-999.0,71,-99.99,,,-99.99,dwt +perl,2013-09-17 18:09:00,
2013-09-17 11:18:00,51.5,41.3,24.85,WSW,239,16.0,-999.0,68,-99.99,,,-99.99,dwt +perl,2013-09-17 18:18:00,
2013-09-17 11:23:00,51.5,41.3,24.85,West,266,12.0,-999.0,68,-99.99,,,-99.99,dwt +perl,2013-09-17 18:23:00,
2013-09-17 11:24:00,51.3,40.3,24.85,SW,233,15.0,-999.0,66,-99.99,,,-99.99,dwt +perl,2013-09-17 18:24:00,
2013-09-17 11:33:00,51.6,41.0,24.85,West,278,20.0,-999.0,67,-99.99,,,-99.99,dwt +perl,2013-09-17 18:33:00,
2013-09-17 11:39:00,51.6,41.4,24.85,West,274,23.0,-999.0,68,-99.99,,,-99.99,dwt +perl,2013-09-17 18:39:00,
2013-09-17 11:43:00,52.1,41.5,24.85,SW,233,18.0,-999.0,67,-99.99,,,-99.99,dwt +perl,2013-09-17 18:43:00,
2013-09-17 11:49:00,52.3,40.9,24.85,WSW,245,13.0,-999.0,65,-99.99,,,-99.99,dwt +perl,2013-09-17 18:49:00,
2013-09-17 11:58:00,53.0,41.9,24.85,West,272,16.0,-999.0,66,-99.99,,,-99.99,dwt +perl,2013-09-17 18:58:00,
2013-09-17 11:59:00,52.3,41.7,24.85,WSW,253,10.0,-999.0,67,-99.99,,,-99.99,dwt +perl,2013-09-17 18:59:00,
2013-09-17 12:03:00,53.1,41.6,24.85,West,278,11.0,-999.0,65,-99.99,,,-99.99,dwt +perl,2013-09-17 19:03:00,
2013-09-17 12:04:00,52.7,42.4,24.85,West,280,17.0,-999.0,68,-99.99,,,-99.99,dwt +perl,2013-09-17 19:04:00,
2013-09-17 12:08:00,53.1,40.4,24.86,West,266,13.0,-999.0,62,-99.99,,,-99.99,dwt +perl,2013-09-17 19:08:00,
2013-09-17 12:18:00,53.2,40.1,24.86,WNW,287,17.0,-999.0,61,-99.99,,,-99.99,dwt +perl,2013-09-17 19:18:00,
2013-09-17 12:24:00,52.7,40.0,24.86,SW,233,19.0,-999.0,62,-99.99,,,-99.99,dwt +perl,2013-09-17 19:24:00,
2013-09-17 12:28:00,53.4,41.5,24.86,West,268,14.0,-999.0,64,-99.99,,,-99.99,dwt +perl,2013-09-17 19:28:00,
2013-09-17 12:33:00,53.3,41.0,24.86,WNW,291,15.0,-999.0,63,-99.99,,,-99.99,dwt +perl,2013-09-17 19:33:00,
2013-09-17 12:34:00,53.4,41.1,24.86,WNW,290,11.0,-999.0,63,-99.99,,,-99.99,dwt +perl,2013-09-17 19:34:00,
2013-09-17 12:43:00,53.9,41.2,24.86,WSW,251,14.0,-999.0,62,-99.99,,,-99.99,dwt +perl,2013-09-17 19:43:00,
2013-09-17 12:49:00,53.6,40.9,24.86,WSW,241,11.0,-999.0,62,-99.99,,,-99.99,dwt +perl,2013-09-17 19:49:00,
2013-09-17 12:53:00,53.0,40.7,24.86,West,262,18.0,-999.0,63,-99.99,,,-99.99,dwt +perl,2013-09-17 19:53:00,
2013-09-17 12:58:00,53.4,41.1,24.86,WNW,290,17.0,-999.0,63,-99.99,,,-99.99,dwt +perl,2013-09-17 19:58:00,
2013-09-17 12:59:00,53.3,41.4,24.86,WNW,282,12.0,-999.0,64,-99.99,,,-99.99,dwt +perl,2013-09-17 19:59:00,
2013-09-17 13:03:00,53.5,42.4,24.86,West,277,14.0,-999.0,66,-99.99,,,-99.99,dwt +perl,2013-09-17 20:03:00,
2013-09-17 13:13:00,53.8,42.7,24.86,West,270,15.0,-999.0,66,-99.99,,,-99.99,dwt +perl,2013-09-17 20:13:00,
2013-09-17 13:19:00,53.5,42.4,24.86,WSW,258,12.0,-999.0,66,-99.99,,,-99.99,dwt +perl,2013-09-17 20:19:00,
2013-09-17 13:23:00,53.6,41.3,24.86,WSW,237,16.0,-999.0,63,-99.99,,,-99.99,dwt +perl,2013-09-17 20:23:00,
2013-09-17 13:28:00,53.4,39.9,24.86,WNW,298,13.0,-999.0,60,-99.99,,,-99.99,dwt +perl,2013-09-17 20:28:00,
2013-09-17 13:29:00,53.8,41.9,24.86,SW,235,15.0,-999.0,64,-99.99,,,-99.99,dwt +perl,2013-09-17 20:29:00,
2013-09-17 13:33:00,53.7,41.8,24.86,WNW,291,19.0,-999.0,64,-99.99,,,-99.99,dwt +perl,2013-09-17 20:33:00,
2013-09-17 13:43:00,53.5,41.6,24.86,West,271,15.0,-999.0,64,-99.99,,,-99.99,dwt +perl,2013-09-17 20:43:00,
2013-09-17 13:49:00,53.3,41.0,24.86,WNW,285,12.0,-999.0,63,-99.99,,,-99.99,dwt +perl,2013-09-17 20:49:00,
2013-09-17 13:53:00,54.2,42.7,24.86,WSW,256,12.0,-999.0,65,-99.99,,,-99.99,dwt +perl,2013-09-17 20:53:00,
2013-09-17 13:59:00,53.3,42.2,24.86,West,278,19.0,-999.0,66,-99.99,,,-99.99,dwt +perl,2013-09-17 20:59:00,
2013-09-17 14:03:00,53.9,42.8,24.86,West,268,15.0,-999.0,66,-99.99,,,-99.99,dwt +perl,2013-09-17 21:03:00,
2013-09-17 14:09:00,53.3,42.6,24.86,West,274,13.0,-999.0,67,-99.99,,,-99.99,dwt +perl,2013-09-17 21:09:00,
2013-09-17 14:13:00,53.1,41.2,24.86,WSW,252,15.0,-999.0,64,-99.99,,,-99.99,dwt +perl,2013-09-17 21:13:00,
2013-09-17 14:19:00,53.4,42.3,24.86,West,261,16.0,-999.0,66,-99.99,,,-99.99,dwt +perl,2013-09-17 21:19:00,
2013-09-17 14:29:00,53.5,42.8,24.85,West,260,13.0,-999.0,67,-99.99,,,-99.99,dwt +perl,2013-09-17 21:29:00,
2013-09-17 14:34:00,54.1,42.2,24.85,WSW,256,10.0,-999.0,64,-99.99,,,-99.99,dwt +perl,2013-09-17 21:34:00,
2013-09-17 14:39:00,54.3,42.8,24.86,WSW,256,8.0,-999.0,65,-99.99,,,-99.99,dwt +perl,2013-09-17 21:39:00,
2013-09-17 14:43:00,54.4,43.3,24.86,SW,228,15.0,-999.0,66,-99.99,,,-99.99,dwt +perl,2013-09-17 21:43:00,
2013-09-17 14:44:00,54.3,42.8,24.86,West,279,11.0,-999.0,65,-99.99,,,-99.99,dwt +perl,2013-09-17 21:44:00,
2013-09-17 14:49:00,53.8,42.3,24.86,West,268,17.0,-999.0,65,-99.99,,,-99.99,dwt +perl,2013-09-17 21:49:00,
2013-09-17 14:53:00,54.5,40.9,24.86,West,274,11.0,-999.0,60,-99.99,,,-99.99,dwt +perl,2013-09-17 21:53:00,
2013-09-17 14:59:00,54.8,42.4,24.86,SW,236,10.0,-999.0,63,-99.99,,,-99.99,dwt +perl,2013-09-17 21:59:00,
2013-09-17 15:03:00,55.0,41.8,24.86,WSW,241,14.0,-999.0,61,-99.99,,,-99.99,dwt +perl,2013-09-17 22:03:00,
2013-09-17 15:09:00,54.9,43.0,24.86,SW,229,17.0,-999.0,64,-99.99,,,-99.99,dwt +perl,2013-09-17 22:09:00,
2013-09-17 15:18:00,54.5,42.2,24.86,West,269,12.0,-999.0,63,-99.99,,,-99.99,dwt +perl,2013-09-17 22:18:00,
2013-09-17 15:19:00,54.1,42.2,24.86,SW,225,16.0,-999.0,64,-99.99,,,-99.99,dwt +perl,2013-09-17 22:19:00,
2013-09-17 15:24:00,54.5,42.2,24.86,SSW,212,14.0,-999.0,63,-99.99,,,-99.99,dwt +perl,2013-09-17 22:24:00,
2013-09-17 15:28:00,54.5,42.2,24.86,WSW,256,9.0,-999.0,63,-99.99,,,-99.99,dwt +perl,2013-09-17 22:28:00,
2013-09-17 15:34:00,54.6,42.7,24.86,WSW,241,11.0,-999.0,64,-99.99,,,-99.99,dwt +perl,2013-09-17 22:34:00,
2013-09-17 15:38:00,54.3,42.4,24.86,WSW,253,15.0,-999.0,64,-99.99,,,-99.99,dwt +perl,2013-09-17 22:38:00,
2013-09-17 15:43:00,54.3,42.8,24.86,WSW,241,11.0,-999.0,65,-99.99,,,-99.99,dwt +perl,2013-09-17 22:43:00,
2013-09-17 15:44:00,54.5,42.2,24.86,WSW,253,10.0,-999.0,63,-99.99,,,-99.99,dwt +perl,2013-09-17 22:44:00,
2013-09-17 15:53:00,54.0,42.9,24.86,WSW,258,8.0,-999.0,66,-99.99,,,-99.99,dwt +perl,2013-09-17 22:53:00,
2013-09-17 15:58:00,54.2,43.1,24.86,West,272,11.0,-999.0,66,-99.99,,,-99.99,dwt +perl,2013-09-17 22:58:00,
2013-09-17 15:59:00,53.7,41.4,24.87,WSW,245,11.0,-999.0,63,-99.99,,,-99.99,dwt +perl,2013-09-17 22:59:00,
2013-09-17 16:14:00,53.6,42.9,24.87,WNW,283,12.0,-999.0,67,-99.99,,,-99.99,dwt +perl,2013-09-17 23:14:00,
2013-09-17 16:19:00,53.1,41.6,24.87,NW,306,5.0,-999.0,65,-99.99,,,-99.99,dwt +perl,2013-09-17 23:19:00,
2013-09-17 16:24:00,53.3,43.8,24.86,West,262,5.0,-999.0,70,-99.99,,,-99.99,dwt +perl,2013-09-17 23:24:00,
2013-09-17 16:28:00,53.0,44.2,24.87,WSW,241,4.0,-999.0,72,-99.99,,,-99.99,dwt +perl,2013-09-17 23:28:00,
2013-09-17 16:29:00,53.6,43.7,24.87,West,266,6.0,-999.0,69,-99.99,,,-99.99,dwt +perl,2013-09-17 23:29:00,
2013-09-17 16:34:00,53.2,43.7,24.87,West,264,5.0,-999.0,70,-99.99,,,-99.99,dwt +perl,2013-09-17 23:34:00,
2013-09-17 16:38:00,53.2,44.4,24.87,WNW,289,8.0,-999.0,72,-99.99,,,-99.99,dwt +perl,2013-09-17 23:38:00,
2013-09-17 16:43:00,53.0,43.8,24.86,WSW,256,7.0,-999.0,71,-99.99,,,-99.99,dwt +perl,2013-09-17 23:43:00,
2013-09-17 16:44:00,53.5,44.3,24.87,WNW,290,7.0,-999.0,71,-99.99,,,-99.99,dwt +perl,2013-09-17 23:44:00,
2013-09-17 16:48:00,52.2,43.8,24.86,WSW,239,10.0,-999.0,73,-99.99,,,-99.99,dwt +perl,2013-09-17 23:48:00,
2013-09-17 16:58:00,51.9,43.9,24.86,SW,226,11.0,-999.0,74,-99.99,,,-99.99,dwt +perl,2013-09-17 23:58:00,
2013-09-17 17:03:00,51.6,43.6,24.86,West,266,15.0,-999.0,74,-99.99,,,-99.99,dwt +perl,2013-09-18 00:03:00,
2013-09-17 17:04:00,52.1,43.7,24.86,WSW,244,10.0,-999.0,73,-99.99,,,-99.99,dwt +perl,2013-09-18 00:04:00,
2013-09-17 17:08:00,50.6,43.3,24.86,WSW,245,15.0,-999.0,76,-99.99,,,-99.99,dwt +perl,2013-09-18 00:08:00,
2013-09-17 17:24:00,50.0,43.4,24.86,SW,225,10.0,-999.0,78,-99.99,,,-99.99,dwt +perl,2013-09-18 00:24:00,
2013-09-17 17:28:00,50.4,41.0,24.86,West,270,10.0,-999.0,70,-99.99,,,-99.99,dwt +perl,2013-09-18 00:28:00,
2013-09-17 17:29:00,50.3,43.4,24.86,West,272,10.0,-999.0,77,-99.99,,,-99.99,dwt +perl,2013-09-18 00:29:00,
2013-09-17 17:33:00,50.4,41.7,24.86,West,273,5.0,-999.0,72,-99.99,,,-99.99,dwt +perl,2013-09-18 00:33:00,
2013-09-17 17:34:00,50.5,42.9,24.86,WSW,257,7.0,-999.0,75,-99.99,,,-99.99,dwt +perl,2013-09-18 00:34:00,
2013-09-17 17:38:00,50.2,40.0,24.86,WSW,252,14.0,-999.0,68,-99.99,,,-99.99,dwt +perl,2013-09-18 00:38:00,
2013-09-17 17:54:00,50.1,40.3,24.86,WNW,299,6.0,-999.0,69,-99.99,,,-99.99,dwt +perl,2013-09-18 00:54:00,
2013-09-17 17:59:00,50.1,40.3,24.87,WNW,293,14.0,-999.0,69,-99.99,,,-99.99,dwt +perl,2013-09-18 00:59:00,
2013-09-17 18:04:00,50.4,37.9,24.86,WNW,302,16.0,-999.0,62,-99.99,,,-99.99,dwt +perl,2013-09-18 01:04:00,
2013-09-17 18:09:00,51.0,34.9,24.87,NNW,329,9.0,-999.0,54,-99.99,,,-99.99,dwt +perl,2013-09-18 01:09:00,
2013-09-17 18:14:00,52.3,29.3,24.87,NNW,343,10.0,-999.0,41,-99.99,,,-99.99,dwt +perl,2013-09-18 01:14:00,
2013-09-17 18:19:00,52.8,32.6,24.87,NW,308,15.0,-999.0,46,-99.99,,,-99.99,dwt +perl,2013-09-18 01:19:00,
2013-09-17 18:23:00,52.2,35.1,24.88,West,272,7.0,-999.0,52,-99.99,,,-99.99,dwt +perl,2013-09-18 01:23:00,
2013-09-17 18:24:00,53.1,31.2,24.88,NW,319,10.0,-999.0,43,-99.99,,,-99.99,dwt +perl,2013-09-18 01:24:00,
2013-09-17 18:28:00,52.0,35.4,24.87,WNW,294,7.0,-999.0,53,-99.99,,,-99.99,dwt +perl,2013-09-18 01:28:00,
2013-09-17 18:29:00,52.8,33.7,24.88,WNW,282,7.0,-999.0,48,-99.99,,,-99.99,dwt +perl,2013-09-18 01:29:00,
2013-09-17 18:44:00,51.6,34.1,24.87,West,273,11.0,-999.0,51,-99.99,,,-99.99,dwt +perl,2013-09-18 01:44:00,
2013-09-17 18:49:00,51.6,32.5,24.88,WNW,296,12.0,-999.0,48,-99.99,,,-99.99,dwt +perl,2013-09-18 01:49:00,
2013-09-17 18:54:00,51.8,31.7,24.88,NW,308,9.0,-999.0,46,-99.99,,,-99.99,dwt +perl,2013-09-18 01:54:00,
2013-09-17 18:59:00,51.6,32.0,24.88,NW,317,8.0,-999.0,47,-99.99,,,-99.99,dwt +perl,2013-09-18 01:59:00,
2013-09-17 19:03:00,53.9,26.2,24.88,NNW,327,19.0,-999.0,34,-99.99,,,-99.99,dwt +perl,2013-09-18 02:03:00,
2013-09-17 19:04:00,51.5,28.6,24.88,WNW,303,15.0,-999.0,41,-99.99,,,-99.99,dwt +perl,2013-09-18 02:04:00,
2013-09-17 19:09:00,53.0,28.7,24.88,NW,314,16.0,-999.0,39,-99.99,,,-99.99,dwt +perl,2013-09-18 02:09:00,
2013-09-17 19:19:00,54.2,25.0,24.88,NW,307,14.0,-999.0,32,-99.99,,,-99.99,dwt +perl,2013-09-18 02:19:00,
2013-09-17 19:24:00,54.9,23.2,24.88,NW,322,20.0,-999.0,29,-99.99,,,-99.99,dwt +perl,2013-09-18 02:24:00,
2013-09-17 19:29:00,55.2,23.5,24.88,NNW,332,17.0,-999.0,29,-99.99,,,-99.99,dwt +perl,2013-09-18 02:29:00,
2013-09-17 19:34:00,54.8,24.0,24.88,NW,317,17.0,-999.0,30,-99.99,,,-99.99,dwt +perl,2013-09-18 02:34:00,
2013-09-17 19:38:00,55.7,21.4,24.88,NNW,337,17.0,-999.0,26,-99.99,,,-99.99,dwt +perl,2013-09-18 02:38:00,
2013-09-17 19:39:00,55.2,21.8,24.88,NW,318,19.0,-999.0,27,-99.99,,,-99.99,dwt +perl,2013-09-18 02:39:00,
2013-09-17 19:43:00,56.2,18.9,24.88,NNW,332,19.0,-999.0,23,-99.99,,,-99.99,dwt +perl,2013-09-18 02:43:00,
2013-09-17 19:44:00,55.2,22.7,24.88,NW,312,17.0,-999.0,28,-99.99,,,-99.99,dwt +perl,2013-09-18 02:44:00,
2013-09-17 19:59:00,56.4,19.1,24.88,NW,318,22.0,-999.0,23,-99.99,,,-99.99,dwt +perl,2013-09-18 02:59:00,
2013-09-17 20:03:00,56.4,20.1,24.89,NNW,344,8.0,-999.0,24,-99.99,,,-99.99,dwt +perl,2013-09-18 03:03:00,
2013-09-17 20:04:00,56.6,19.2,24.89,NW,324,24.0,-999.0,23,-99.99,,,-99.99,dwt +perl,2013-09-18 03:04:00,
2013-09-17 20:08:00,56.3,20.0,24.89,NW,324,19.0,-999.0,24,-99.99,,,-99.99,dwt +perl,2013-09-18 03:08:00,
2013-09-17 20:09:00,56.4,20.1,24.89,NW,316,21.0,-999.0,24,-99.99,,,-99.99,dwt +perl,2013-09-18 03:09:00,
2013-09-17 20:13:00,56.7,18.3,24.89,NNW,330,14.0,-999.0,22,-99.99,,,-99.99,dwt +perl,2013-09-18 03:13:00,
2013-09-17 20:29:00,56.4,19.1,24.89,North,359,10.0,-999.0,23,-99.99,,,-99.99,dwt +perl,2013-09-18 03:29:00,
2013-09-17 20:33:00,55.9,18.6,24.90,NNW,338,11.0,-999.0,23,-99.99,,,-99.99,dwt +perl,2013-09-18 03:33:00,
2013-09-17 20:34:00,56.2,18.9,24.89,NNW,345,15.0,-999.0,23,-99.99,,,-99.99,dwt +perl,2013-09-18 03:34:00,
2013-09-17 20:39:00,56.1,18.8,24.90,NNW,330,15.0,-999.0,23,-99.99,,,-99.99,dwt +perl,2013-09-18 03:39:00,
2013-09-17 20:49:00,55.9,18.6,24.90,NNW,329,15.0,-999.0,23,-99.99,,,-99.99,dwt +perl,2013-09-18 03:49:00,
2013-09-17 20:53:00,55.0,17.9,24.90,North,4,7.0,-999.0,23,-99.99,,,-99.99,dwt +perl,2013-09-18 03:53:00,
2013-09-17 20:54:00,55.6,20.3,24.90,NNW,335,11.0,-999.0,25,-99.99,,,-99.99,dwt +perl,2013-09-18 03:54:00,
2013-09-17 20:58:00,54.7,20.5,24.91,North,8,6.0,-999.0,26,-99.99,,,-99.99,dwt +perl,2013-09-18 03:58:00,
2013-09-17 20:59:00,55.2,20.0,24.90,North,354,12.0,-999.0,25,-99.99,,,-99.99,dwt +perl,2013-09-18 03:59:00,
2013-09-17 21:03:00,54.8,17.7,24.90,NNW,338,10.0,-999.0,23,-99.99,,,-99.99,dwt +perl,2013-09-18 04:03:00,
2013-09-17 21:08:00,55.1,15.9,24.91,North,4,7.0,-999.0,21,-99.99,,,-99.99,dwt +perl,2013-09-18 04:08:00,
2013-09-17 21:13:00,55.2,14.9,24.91,NNE,27,10.0,-999.0,20,-99.99,,,-99.99,dwt +perl,2013-09-18 04:13:00,
2013-09-17 21:18:00,55.6,15.2,24.91,NNW,344,8.0,-999.0,20,-99.99,,,-99.99,dwt +perl,2013-09-18 04:18:00,
2013-09-17 21:23:00,55.8,17.5,24.91,North,349,13.0,-999.0,22,-99.99,,,-99.99,dwt +perl,2013-09-18 04:23:00,
2013-09-17 21:28:00,55.8,17.5,24.91,NW,318,14.0,-999.0,22,-99.99,,,-99.99,dwt +perl,2013-09-18 04:28:00,
2013-09-17 21:33:00,55.9,17.6,24.91,NNE,17,6.0,-999.0,22,-99.99,,,-99.99,dwt +perl,2013-09-18 04:33:00,
2013-09-17 21:38:00,55.8,15.3,24.91,NW,321,11.0,-999.0,20,-99.99,,,-99.99,dwt +perl,2013-09-18 04:38:00,
2013-09-17 21:43:00,55.7,17.5,24.92,NNE,30,11.0,-999.0,22,-99.99,,,-99.99,dwt +perl,2013-09-18 04:43:00,
2013-09-17 21:48:00,54.9,20.7,24.92,NE,37,7.0,-999.0,26,-99.99,,,-99.99,dwt +perl,2013-09-18 04:48:00,
2013-09-17 21:53:00,54.3,21.9,24.92,NNE,32,10.0,-999.0,28,-99.99,,,-99.99,dwt +perl,2013-09-18 04:53:00,
2013-09-17 22:03:00,53.7,25.3,24.91,NNE,27,6.0,-999.0,33,-99.99,,,-99.99,dwt +perl,2013-09-18 05:03:00,
2013-09-17 22:08:00,53.5,25.8,24.92,NE,35,5.0,-999.0,34,-99.99,,,-99.99,dwt +perl,2013-09-18 05:08:00,
2013-09-17 22:13:00,53.4,23.5,24.92,NNW,337,8.0,-999.0,31,-99.99,,,-99.99,dwt +perl,2013-09-18 05:13:00,
2013-09-17 22:18:00,53.5,25.1,24.92,NNE,29,9.0,-999.0,33,-99.99,,,-99.99,dwt +perl,2013-09-18 05:18:00,
2013-09-17 22:23:00,53.3,26.4,24.91,NNE,20,7.0,-999.0,35,-99.99,,,-99.99,dwt +perl,2013-09-18 05:23:00,
2013-09-17 22:28:00,53.3,29.6,24.91,NNE,24,9.0,-999.0,40,-99.99,,,-99.99,dwt +perl,2013-09-18 05:28:00,
2013-09-17 22:33:00,53.1,32.3,24.91,NNE,29,6.0,-999.0,45,-99.99,,,-99.99,dwt +perl,2013-09-18 05:33:00,
2013-09-17 22:38:00,52.6,33.0,24.92,NNE,30,5.0,-999.0,47,-99.99,,,-99.99,dwt +perl,2013-09-18 05:38:00,
2013-09-17 22:43:00,52.0,34.9,24.91,NNE,29,7.0,-999.0,52,-99.99,,,-99.99,dwt +perl,2013-09-18 05:43:00,
2013-09-17 22:48:00,51.5,36.8,24.92,NNE,33,8.0,-999.0,57,-99.99,,,-99.99,dwt +perl,2013-09-18 05:48:00,
2013-09-17 22:53:00,51.1,38.1,24.91,NE,48,10.0,-999.0,61,-99.99,,,-99.99,dwt +perl,2013-09-18 05:53:00,
2013-09-17 22:58:00,51.3,39.9,24.91,NNE,25,8.0,-999.0,65,-99.99,,,-99.99,dwt +perl,2013-09-18 05:58:00,
2013-09-17 23:03:00,51.6,40.6,24.91,NNE,29,10.0,-999.0,66,-99.99,,,-99.99,dwt +perl,2013-09-18 06:03:00,
2013-09-17 23:08:00,51.7,40.7,24.91,NNE,27,14.0,-999.0,66,-99.99,,,-99.99,dwt +perl,2013-09-18 06:08:00,
2013-09-17 23:13:00,51.9,40.9,24.91,NNE,18,14.0,-999.0,66,-99.99,,,-99.99,dwt +perl,2013-09-18 06:13:00,
2013-09-17 23:18:00,52.0,41.0,24.91,NNE,21,15.0,-999.0,66,-99.99,,,-99.99,dwt +perl,2013-09-18 06:18:00,
2013-09-17 23:23:00,51.9,40.9,24.91,NNE,31,12.0,-999.0,66,-99.99,,,-99.99,dwt +perl,2013-09-18 06:23:00,
2013-09-17 23:28:00,52.0,40.6,24.91,NNE,23,15.0,-999.0,65,-99.99,,,-99.99,dwt +perl,2013-09-18 06:28:00,
2013-09-17 23:33:00,52.1,40.7,24.91,NNE,31,11.0,-999.0,65,-99.99,,,-99.99,dwt +perl,2013-09-18 06:33:00,
2013-09-17 23:38:00,52.4,40.2,24.91,NNE,18,17.0,-999.0,63,-99.99,,,-99.99,dwt +perl,2013-09-18 06:38:00,
2013-09-17 23:43:00,52.5,40.7,24.91,NNE,26,11.0,-999.0,64,-99.99,,,-99.99,dwt +perl,2013-09-18 06:43:00,
2013-09-17 23:48:00,52.4,41.0,24.91,NNE,17,16.0,-999.0,65,-99.99,,,-99.99,dwt +perl,2013-09-18 06:48:00,
2013-09-17 23:53:00,52.4,41.0,24.91,NE,35,19.0,-999.0,65,-99.99,,,-99.99,dwt +perl,2013-09-18 06:53:00,
2013-09-17 23:58:00,52.3,40.9,24.91,NNE,25,17.0,-999.0,65,-99.99,,,-99.99,dwt +perl,2013-09-18 06:58:00,